createdAt,value
2022-09-27T00:05:16.325Z,98277
2022-09-27T00:10:52.285Z,98278.6
2022-09-27T00:16:27.519Z,98281.7
2022-09-27T00:22:02.949Z,98276.4
2022-09-27T00:27:38.191Z,98289.8
2022-09-27T00:33:13.045Z,98309
2022-09-27T00:38:47.711Z,98292.6
2022-09-27T00:44:22.656Z,98286.3
2022-09-27T00:49:57.582Z,98292.3
2022-09-27T00:55:32.366Z,98299.5
2022-09-27T01:01:08.169Z,98303.1
2022-09-27T01:06:44.436Z,98302.8
2022-09-27T01:12:20.316Z,98308
2022-09-27T01:17:55.129Z,98321
2022-09-27T01:23:30.141Z,98324.1
2022-09-27T01:29:13.543Z,98327.6
2022-09-27T01:34:49.050Z,98336.8
2022-09-27T01:40:24.428Z,98346
2022-09-27T01:46:01.135Z,98350
2022-09-27T01:51:36.435Z,98350.6
2022-09-27T01:57:11.252Z,98349.1
2022-09-27T02:02:47.321Z,98339.2
2022-09-27T02:08:23.166Z,98333.6
2022-09-27T02:13:58.057Z,98326
2022-09-27T02:19:33.200Z,98320.6
2022-09-27T02:25:08.204Z,98318.3
2022-09-27T02:30:53.745Z,98313.3
2022-09-27T02:36:29.535Z,98309.3
2022-09-27T02:42:04.742Z,98307.4
2022-09-27T02:47:39.774Z,98305.1
2022-09-27T02:53:14.538Z,98308.5
2022-09-27T02:58:49.328Z,98303.2
2022-09-27T03:04:25.398Z,98303
2022-09-27T03:10:00.688Z,98304.6
2022-09-27T03:15:35.500Z,98306
2022-09-27T03:21:10.548Z,98307.4
2022-09-27T03:26:46.434Z,98312.2
2022-09-27T03:32:21.201Z,98313.4
2022-09-27T03:37:56.352Z,98314.4
2022-09-27T03:43:31.570Z,98317.5
2022-09-27T03:49:06.489Z,98305.8
2022-09-27T03:54:41.334Z,98304.4
2022-09-27T04:00:16.453Z,98312.6
2022-09-27T04:05:51.327Z,98308.8
2022-09-27T04:11:40.209Z,98317.2
2022-09-27T04:17:16.317Z,98326.9
2022-09-27T04:22:51.498Z,98332
2022-09-27T04:28:26.307Z,98334.5
2022-09-27T04:34:01.531Z,98336.4
2022-09-27T04:39:36.216Z,98328.1
2022-09-27T04:45:12.206Z,98324.8
2022-09-27T04:50:47.921Z,98331.5
2022-09-27T04:56:22.830Z,98339.7
2022-09-27T05:01:58.225Z,98338.7
2022-09-27T05:07:34.167Z,98348.3
2022-09-27T05:13:09.175Z,98341.5
2022-09-27T05:18:44.916Z,98340.8
2022-09-27T05:24:19.765Z,98339.2
2022-09-27T05:29:54.541Z,98345.6
2022-09-27T05:35:30.315Z,98354.1
2022-09-27T05:41:06.200Z,98366.6
2022-09-27T05:46:41.912Z,98371.4
2022-09-27T05:52:23.784Z,98372.4
2022-09-27T05:57:58.975Z,98373.6
2022-09-27T06:03:33.924Z,98383.7
2022-09-27T06:09:18.176Z,98387.3
2022-09-27T06:14:53.166Z,98387.3
2022-09-27T06:20:28.499Z,98400.5
2022-09-27T06:26:04.166Z,98397
2022-09-27T06:31:39.022Z,98406.7
2022-09-27T06:37:13.755Z,98410.1
2022-09-27T06:42:48.526Z,98408.8
2022-09-27T06:48:23.833Z,98416.6
2022-09-27T06:53:59.930Z,98417.9
2022-09-27T06:59:34.819Z,98421.7
2022-09-27T07:05:09.765Z,98427.5
2022-09-27T07:10:45.969Z,98422.5
2022-09-27T07:16:21.993Z,98421
2022-09-27T07:21:57.848Z,98427.7
2022-09-27T07:27:32.774Z,98431.3
2022-09-27T07:33:10.041Z,98433.4
2022-09-27T07:38:46.138Z,98441.6
2022-09-27T07:44:21.303Z,98444.4
2022-09-27T07:49:56.123Z,98463.1
2022-09-27T07:55:31.236Z,98468.1
2022-09-27T08:01:06.656Z,98468.5
2022-09-27T08:06:42.548Z,98475.9
2022-09-27T08:12:18.391Z,98476.3
2022-09-27T08:17:53.445Z,98474.4
2022-09-27T08:23:28.378Z,98481.7
2022-09-27T08:29:03.487Z,98489.9
2022-09-27T08:34:38.433Z,98490.5
2022-09-27T08:40:14.323Z,98490.7
2022-09-27T08:45:50.663Z,98508.9
2022-09-27T08:51:27.444Z,98514.7
2022-09-27T08:57:03.520Z,98519.9
2022-09-27T09:02:38.618Z,98519.3
2022-09-27T09:08:13.874Z,98522.8
2022-09-27T09:13:48.682Z,98515.9
2022-09-27T09:19:24.792Z,98530.1
2022-09-27T09:24:59.805Z,98536.3
2022-09-27T09:30:35.007Z,98541.7
2022-09-27T09:36:11.960Z,98541
2022-09-27T09:41:47.459Z,98540.9
2022-09-27T09:47:31.349Z,98544.3
2022-09-27T09:53:06.797Z,98544.1
2022-09-27T09:58:41.883Z,98544.3
2022-09-27T10:04:17.758Z,98554
2022-09-27T10:09:52.965Z,98565.7
2022-09-27T10:15:27.966Z,98567.7
2022-09-27T10:21:02.980Z,98570.2
2022-09-27T10:26:38.866Z,98567.5
2022-09-27T10:32:13.601Z,98563.3
2022-09-27T10:37:48.471Z,98564.5
2022-09-27T10:43:30.558Z,98560
2022-09-27T10:49:05.421Z,98556.7
2022-09-27T10:54:40.475Z,98554.6
2022-09-27T11:00:15.469Z,98557.5
2022-09-27T11:05:51.395Z,98563.5
2022-09-27T11:11:26.050Z,98567.6
2022-09-27T11:17:00.759Z,98553.6
2022-09-27T11:22:35.846Z,98557.6
2022-09-27T11:28:10.583Z,98556.7
2022-09-27T11:33:45.773Z,98556.7
2022-09-27T11:39:20.985Z,98558.4
2022-09-27T11:46:14.119Z,98561.8
2022-09-27T11:52:17.168Z,98565.2
2022-09-27T11:57:52.138Z,98561.5
2022-09-27T12:03:27.865Z,98552.2
2022-09-27T12:09:03.141Z,98558.4
2022-09-27T12:14:38.608Z,98566.5
2022-09-27T12:20:13.648Z,98564.3
2022-09-27T12:25:49.615Z,98561.4
2022-09-27T12:31:32.607Z,98552.8
2022-09-27T12:37:08.186Z,98540.3
2022-09-27T12:42:44.136Z,98540.6
2022-09-27T12:48:19.029Z,98551.8
2022-09-27T12:53:54.059Z,98553.2
2022-09-27T12:59:28.833Z,98571.3
2022-09-27T13:05:03.572Z,98563.7
2022-09-27T13:10:39.579Z,98557.2
2022-09-27T13:16:15.146Z,98558.7
2022-09-27T13:21:51.285Z,98566.2
2022-09-27T13:27:26.683Z,98572
2022-09-27T13:33:09.620Z,98570.6
2022-09-27T13:38:45.496Z,98560
2022-09-27T13:44:40.132Z,98551.8
2022-09-27T13:50:15.566Z,98556.4
2022-09-27T13:55:51.636Z,98550.5
2022-09-27T14:01:27.157Z,98549.9
2022-09-27T14:07:03.025Z,98553.2
2022-09-27T14:12:39.256Z,98552.3
2022-09-27T14:18:14.267Z,98554.2
2022-09-27T14:23:50.267Z,98553.9
2022-09-27T14:29:26.126Z,98549.1
2022-09-27T14:35:01.019Z,98574.3
2022-09-27T14:40:36.359Z,98575.5
2022-09-27T14:46:12.327Z,98582.6
2022-09-27T14:51:47.613Z,98577.5
2022-09-27T14:57:22.701Z,98578.4
2022-09-27T15:02:57.712Z,98578.6
2022-09-27T15:08:34.029Z,98572.5
2022-09-27T15:14:08.801Z,98567
2022-09-27T15:19:43.989Z,98570.4
2022-09-27T15:25:20.520Z,98567
2022-09-27T15:30:56.493Z,98584.2
2022-09-27T15:36:32.146Z,98582.3
2022-09-27T15:42:06.982Z,98581.1
2022-09-27T15:47:42.342Z,98598
2022-09-27T15:53:17.330Z,98609.4
2022-09-27T15:58:53.123Z,98615.5
2022-09-27T16:04:28.167Z,98601.8
2022-09-27T16:10:03.692Z,98608.8
2022-09-27T16:15:39.932Z,98611.9
2022-09-27T16:21:14.772Z,98606.6
2022-09-27T16:26:50.635Z,98598.6
2022-09-27T16:32:26.283Z,98597.7
2022-09-27T16:38:01.430Z,98597.2
2022-09-27T16:43:36.812Z,98606.8
2022-09-27T16:49:11.793Z,98613
2022-09-27T16:54:47.350Z,98618.3
2022-09-27T17:00:22.259Z,98611.1
2022-09-27T17:05:57.284Z,98618.6
2022-09-27T17:11:54.066Z,98620.1
2022-09-27T17:17:26.591Z,98620.8
2022-09-27T17:23:01.196Z,98618.1
2022-09-27T17:28:35.957Z,98624.2
2022-09-27T17:34:11.716Z,98624.9
2022-09-27T17:39:47.811Z,98629.3
2022-09-27T17:45:23.075Z,98630.3
2022-09-27T17:50:57.732Z,98620.3
2022-09-27T17:56:33.299Z,98621.3
2022-09-27T18:02:08.673Z,98623.9
2022-09-27T18:07:47.951Z,98624.7
2022-09-27T18:13:44.586Z,98622.2
2022-09-27T18:19:19.369Z,98625.5
2022-09-27T18:24:56.707Z,98624.4
2022-09-27T18:30:32.497Z,98616.9
2022-09-27T18:36:08.535Z,98615.4
2022-09-27T18:41:43.819Z,98614.7
2022-09-27T18:47:20.255Z,98616.7
2022-09-27T18:52:56.921Z,98618.9
2022-09-27T18:58:31.715Z,98629.3
2022-09-27T19:04:06.651Z,98626.6
2022-09-27T19:09:41.865Z,98642.3
2022-09-27T19:15:18.145Z,98634.2
2022-09-27T19:20:54.619Z,98633.8
2022-09-27T19:26:29.457Z,98629.6
2022-09-27T19:32:04.997Z,98621.6
2022-09-27T19:37:40.915Z,98624.1
2022-09-27T19:43:15.503Z,98622.1
2022-09-27T19:49:00.076Z,98615.2
2022-09-27T19:54:34.948Z,98606.8
2022-09-27T20:00:10.895Z,98599.3
2022-09-27T20:05:45.695Z,98599.9
2022-09-27T20:11:42.569Z,98602.3
2022-09-27T20:17:15.551Z,98601.3
2022-09-27T20:22:50.434Z,98601.3
2022-09-27T20:28:25.244Z,98601
2022-09-27T20:34:00.401Z,98601.5
2022-09-27T20:39:35.631Z,98593.3
2022-09-27T20:45:10.597Z,98593.6
2022-09-27T20:50:45.301Z,98575.7
2022-09-27T20:56:21.542Z,98561.5
2022-09-27T21:01:56.522Z,98561
2022-09-27T21:07:32.417Z,98561.5
2022-09-27T21:13:29.063Z,98557.2
2022-09-27T21:19:03.170Z,98547.1
2022-09-27T21:24:38.174Z,98542.1
2022-09-27T21:30:16.937Z,98532.5
2022-09-27T21:35:52.144Z,98533.7
2022-09-27T21:41:27.541Z,98516
2022-09-27T21:47:02.993Z,98505.2
2022-09-27T21:52:38.814Z,98498.4
2022-09-27T21:58:14.029Z,98490.1
2022-09-27T22:03:49.826Z,98488.5
2022-09-27T22:09:24.812Z,98487.9
2022-09-27T22:14:59.726Z,98484.9
2022-09-27T22:20:37.314Z,98477.5
2022-09-27T22:26:12.137Z,98472
2022-09-27T22:31:48.659Z,98458.7
2022-09-27T22:37:25.115Z,98456
2022-09-27T22:42:59.865Z,98447.9
2022-09-27T22:48:34.686Z,98443
2022-09-27T22:54:09.705Z,98432.9
2022-09-27T22:59:45.598Z,98427.8
2022-09-27T23:05:20.765Z,98421.1
2022-09-27T23:11:18.362Z,98413.3
2022-09-27T23:16:51.179Z,98409.1
2022-09-27T23:22:26.689Z,98401.3
2022-09-27T23:28:01.372Z,98397.8
2022-09-27T23:33:36.243Z,98384.5
2022-09-27T23:39:11.036Z,98369.8
2022-09-27T23:44:46.082Z,98355.4
2022-09-27T23:50:22.149Z,98346.4
2022-09-27T23:55:56.833Z,98340.6
